createdAt,value
2018-05-09T00:00:15.558Z,16.81
2018-05-09T00:01:15.541Z,16.81
2018-05-09T00:02:15.522Z,16.78
2018-05-09T00:03:15.776Z,16.8
2018-05-09T00:04:15.436Z,16.83
2018-05-09T00:05:15.491Z,16.86
2018-05-09T00:06:15.758Z,16.65
2018-05-09T00:07:15.462Z,16.8
2018-05-09T00:08:15.725Z,16.75
2018-05-09T00:09:15.845Z,16.74
2018-05-09T00:10:15.697Z,16.7
2018-05-09T00:11:15.156Z,16.59
2018-05-09T00:12:15.679Z,16.74
2018-05-09T00:13:15.668Z,16.59
2018-05-09T00:14:15.391Z,16.56
2018-05-09T00:15:15.129Z,16.62
2018-05-09T00:16:15.097Z,16.55
2018-05-09T00:17:15.625Z,16.5
2018-05-09T00:18:15.339Z,16.44
2018-05-09T00:19:15.334Z,16.45
2018-05-09T00:20:15.647Z,16.53
2018-05-09T00:21:15.305Z,16.48
2018-05-09T00:22:15.031Z,16.42
2018-05-09T00:23:15.302Z,16.37
2018-05-09T00:24:15.546Z,16.41
2018-05-09T00:25:15.543Z,16.37
2018-05-09T00:26:15.520Z,16.34
2018-05-09T00:27:15.507Z,16.33
2018-05-09T00:28:15.496Z,16.27
2018-05-09T00:29:15.479Z,16.3
2018-05-09T00:30:14.938Z,16.31
2018-05-09T00:31:15.189Z,16.23
2018-05-09T00:32:15.185Z,16.18
2018-05-09T00:33:15.169Z,16.18
2018-05-09T00:34:14.890Z,16.18
2018-05-09T00:35:14.886Z,16.18
2018-05-09T00:36:15.141Z,16.2
2018-05-09T00:37:15.386Z,16.09
2018-05-09T00:38:15.392Z,16.14
2018-05-09T00:39:15.361Z,16.12
2018-05-09T00:40:14.829Z,16.11
2018-05-09T00:41:14.816Z,16
2018-05-09T00:42:15.078Z,16.03
2018-05-09T00:43:15.059Z,16
2018-05-09T00:44:14.781Z,15.94
2018-05-09T00:45:15.030Z,15.97
2018-05-09T00:46:15.023Z,15.89
2018-05-09T00:47:15.293Z,15.92
2018-05-09T00:48:14.744Z,15.81
2018-05-09T00:49:14.997Z,15.81
2018-05-09T00:50:14.737Z,15.81
2018-05-09T00:51:15.240Z,15.72
2018-05-09T00:52:15.263Z,15.81
2018-05-09T00:53:15.214Z,15.75
2018-05-09T00:54:14.932Z,15.7
2018-05-09T00:55:14.926Z,15.63
2018-05-09T00:56:14.903Z,15.72
2018-05-09T00:57:15.155Z,15.6
2018-05-09T00:58:14.618Z,15.61
2018-05-09T00:59:14.609Z,15.68
2018-05-09T01:00:14.859Z,15.63
2018-05-09T01:01:15.113Z,15.59
2018-05-09T01:02:15.107Z,15.63
2018-05-09T01:03:14.817Z,15.56
2018-05-09T01:04:14.810Z,15.52
2018-05-09T01:05:15.066Z,15.6
2018-05-09T01:06:14.517Z,15.54
2018-05-09T01:07:14.517Z,15.56
2018-05-09T01:08:14.762Z,15.56
2018-05-09T01:09:14.485Z,15.56
2018-05-09T01:10:14.740Z,15.52
2018-05-09T01:11:14.727Z,15.52
2018-05-09T01:12:14.976Z,15.54
2018-05-09T01:13:14.706Z,15.48
2018-05-09T01:14:14.689Z,15.56
2018-05-09T01:15:14.416Z,15.49
2018-05-09T01:16:14.398Z,15.48
2018-05-09T01:17:14.930Z,15.43
2018-05-09T01:18:14.905Z,15.39
2018-05-09T01:19:14.637Z,15.38
2018-05-09T01:20:14.351Z,15.31
2018-05-09T01:21:14.868Z,15.39
2018-05-09T01:22:14.590Z,15.3
2018-05-09T01:23:14.320Z,15.28
2018-05-09T01:24:14.582Z,15.24
2018-05-09T01:25:14.558Z,15.13
2018-05-09T01:26:14.820Z,15.17
2018-05-09T01:27:14.534Z,15.2
2018-05-09T01:28:14.522Z,15.11
2018-05-09T01:29:14.769Z,15.17
2018-05-09T01:30:14.502Z,15.19
2018-05-09T01:31:14.743Z,15.12
2018-05-09T01:32:14.203Z,15.06
2018-05-09T01:33:14.459Z,15.08
2018-05-09T01:34:14.711Z,15.05
2018-05-09T01:35:14.430Z,15.02
2018-05-09T01:36:14.694Z,15.06
2018-05-09T01:37:14.676Z,15.02
2018-05-09T01:38:14.402Z,14.99
2018-05-09T01:39:14.384Z,14.98
2018-05-09T01:40:14.377Z,14.99
2018-05-09T01:41:14.366Z,15.01
2018-05-09T01:42:14.349Z,14.98
2018-05-09T01:43:14.078Z,14.95
2018-05-09T01:44:14.322Z,14.93
2018-05-09T01:45:14.326Z,14.9
2018-05-09T01:46:14.564Z,14.91
2018-05-09T01:47:14.288Z,14.83
2018-05-09T01:48:14.277Z,14.87
2018-05-09T01:49:14.006Z,14.81
2018-05-09T01:50:14.525Z,14.84
2018-05-09T01:51:14.337Z,14.75
2018-05-09T01:52:13.959Z,14.72
2018-05-09T01:53:14.209Z,14.68
2018-05-09T01:54:14.467Z,14.78
2018-05-09T01:55:14.184Z,14.69
2018-05-09T01:56:13.911Z,14.74
2018-05-09T01:57:14.159Z,14.68
2018-05-09T01:58:14.154Z,14.75
2018-05-09T01:59:14.138Z,14.64
2018-05-09T02:00:13.864Z,14.69
2018-05-09T02:01:14.120Z,14.62
2018-05-09T02:02:14.093Z,14.65
2018-05-09T02:03:14.089Z,14.6
2018-05-09T02:04:14.281Z,14.56
2018-05-09T02:05:14.326Z,14.65
2018-05-09T02:06:14.626Z,14.53
2018-05-09T02:07:14.041Z,14.54
2018-05-09T02:08:14.027Z,14.61
2018-05-09T02:09:14.281Z,14.47
2018-05-09T02:10:13.730Z,14.52
2018-05-09T02:11:13.982Z,14.54
2018-05-09T02:12:13.706Z,14.57
2018-05-09T02:13:13.953Z,14.54
2018-05-09T02:14:13.945Z,14.44
2018-05-09T02:15:13.931Z,14.53
2018-05-09T02:16:13.920Z,14.5
2018-05-09T02:17:13.901Z,14.47
2018-05-09T02:18:13.625Z,14.49
2018-05-09T02:19:14.147Z,14.49
2018-05-09T02:20:13.869Z,14.47
2018-05-09T02:21:13.600Z,14.5
2018-05-09T02:22:13.842Z,14.49
2018-05-09T02:23:13.834Z,14.46
2018-05-09T02:24:14.334Z,14.44
2018-05-09T02:25:14.076Z,14.5
2018-05-09T02:26:13.794Z,14.38
2018-05-09T02:27:13.778Z,14.34
2018-05-09T02:28:14.042Z,14.39
2018-05-09T02:29:13.755Z,14.35
2018-05-09T02:30:14.021Z,14.32
2018-05-09T02:31:13.524Z,14.34
2018-05-09T02:32:13.451Z,14.27
2018-05-09T02:33:13.436Z,14.31
2018-05-09T02:34:13.691Z,14.31
2018-05-09T02:35:13.947Z,14.28
2018-05-09T02:36:13.667Z,14.25
2018-05-09T02:37:13.927Z,14.29
2018-05-09T02:38:13.927Z,14.27
2018-05-09T02:39:13.915Z,14.27
2018-05-09T02:40:13.618Z,14.29
2018-05-09T02:41:13.870Z,14.19
2018-05-09T02:42:13.323Z,14.19
2018-05-09T02:43:13.573Z,14.1
2018-05-09T02:44:13.566Z,14.13
2018-05-09T02:45:13.552Z,14.16
2018-05-09T02:46:13.808Z,14.17
2018-05-09T02:47:13.533Z,14.07
2018-05-09T02:48:13.509Z,14.17
2018-05-09T02:49:13.506Z,14.17
2018-05-09T02:50:13.820Z,14.16
2018-05-09T02:51:13.731Z,14.17
2018-05-09T02:52:13.455Z,14.04
2018-05-09T02:53:13.450Z,14.14
2018-05-09T02:54:13.434Z,14.13
2018-05-09T02:55:13.679Z,14.14
2018-05-09T02:56:13.668Z,14.06
2018-05-09T02:57:13.405Z,14.19
2018-05-09T02:58:13.643Z,14.13
2018-05-09T02:59:13.103Z,14.16
2018-05-09T03:00:13.626Z,14.16
2018-05-09T03:01:13.347Z,14.06
2018-05-09T03:02:13.324Z,14.07
2018-05-09T03:03:13.318Z,14.09
2018-05-09T03:04:13.300Z,14.07
2018-05-09T03:05:13.017Z,14.06
2018-05-09T03:06:13.539Z,13.92
2018-05-09T03:07:13.526Z,13.94
2018-05-09T03:08:13.511Z,13.95
2018-05-09T03:09:13.234Z,13.98
2018-05-09T03:10:13.487Z,13.89
2018-05-09T03:11:13.474Z,13.92
2018-05-09T03:12:13.200Z,13.96
2018-05-09T03:13:13.449Z,13.92
2018-05-09T03:14:13.170Z,13.95
2018-05-09T03:15:13.419Z,13.87
2018-05-09T03:16:13.409Z,13.88
2018-05-09T03:17:13.394Z,13.89
2018-05-09T03:18:13.374Z,13.88
2018-05-09T03:19:13.102Z,13.81
2018-05-09T03:20:13.357Z,13.83
2018-05-09T03:21:13.342Z,13.92
2018-05-09T03:22:13.062Z,13.83
2018-05-09T03:23:13.044Z,13.84
2018-05-09T03:24:12.766Z,13.84
2018-05-09T03:25:13.287Z,13.89
2018-05-09T03:26:13.332Z,13.84
2018-05-09T03:27:12.735Z,13.79
2018-05-09T03:28:12.979Z,13.8
2018-05-09T03:29:13.234Z,13.83
2018-05-09T03:30:13.247Z,13.79
2018-05-09T03:31:12.684Z,13.79
2018-05-09T03:32:13.206Z,13.81
2018-05-09T03:33:13.184Z,13.81
2018-05-09T03:34:13.160Z,13.83
2018-05-09T03:35:13.147Z,13.73
2018-05-09T03:36:12.877Z,13.84
2018-05-09T03:37:13.129Z,13.73
2018-05-09T03:38:12.590Z,13.83
2018-05-09T03:39:12.840Z,13.71
2018-05-09T03:40:12.555Z,13.71
2018-05-09T03:41:12.807Z,13.71
2018-05-09T03:42:12.800Z,13.73
2018-05-09T03:43:13.053Z,13.7
2018-05-09T03:44:12.763Z,13.81
2018-05-09T03:45:12.757Z,13.76
2018-05-09T03:46:12.753Z,13.67
2018-05-09T03:47:12.467Z,13.74
2018-05-09T03:48:12.983Z,13.71
2018-05-09T03:49:12.959Z,13.79
2018-05-09T03:50:12.686Z,13.8
2018-05-09T03:51:12.937Z,13.76
2018-05-09T03:52:12.924Z,13.76
2018-05-09T03:53:12.392Z,13.71
2018-05-09T03:54:12.637Z,13.77
2018-05-09T03:55:12.615Z,13.77
2018-05-09T03:56:12.609Z,13.74
2018-05-09T03:57:12.867Z,13.8
2018-05-09T03:58:12.579Z,13.71
2018-05-09T03:59:12.568Z,13.77
2018-05-09T04:00:12.552Z,13.69
2018-05-09T04:01:12.805Z,13.76
2018-05-09T04:02:12.264Z,13.77
2018-05-09T04:03:12.773Z,13.67
2018-05-09T04:04:12.438Z,13.77
2018-05-09T04:05:12.750Z,13.77
2018-05-09T04:06:12.468Z,13.83
2018-05-09T04:07:12.507Z,13.8
2018-05-09T04:08:12.708Z,13.71
2018-05-09T04:09:12.429Z,13.81
2018-05-09T04:10:12.679Z,13.83
2018-05-09T04:11:12.667Z,13.8
2018-05-09T04:12:12.658Z,13.87
2018-05-09T04:13:12.878Z,13.79
2018-05-09T04:14:12.362Z,13.81
2018-05-09T04:15:12.355Z,13.81
2018-05-09T04:16:12.336Z,13.81
2018-05-09T04:17:12.059Z,13.79
2018-05-09T04:18:12.579Z,13.83
2018-05-09T04:19:12.299Z,13.92
2018-05-09T04:20:12.295Z,13.89
2018-05-09T04:21:12.276Z,13.91
2018-05-09T04:22:12.527Z,13.87
2018-05-09T04:23:12.262Z,13.89
2018-05-09T04:24:12.496Z,13.88
2018-05-09T04:25:12.218Z,13.84
2018-05-09T04:26:12.203Z,13.89
2018-05-09T04:27:12.191Z,13.8
2018-05-09T04:28:12.519Z,13.84
2018-05-09T04:29:12.163Z,13.8
2018-05-09T04:30:12.431Z,13.87
2018-05-09T04:31:12.411Z,13.79
2018-05-09T04:32:12.392Z,13.81
2018-05-09T04:33:12.113Z,13.81
2018-05-09T04:34:12.360Z,13.84
2018-05-09T04:35:12.391Z,13.83
2018-05-09T04:36:12.159Z,13.89
2018-05-09T04:37:12.056Z,13.94
2018-05-09T04:38:11.780Z,13.87
2018-05-09T04:39:11.767Z,13.83
2018-05-09T04:40:11.752Z,13.77
2018-05-09T04:41:12.012Z,13.87
2018-05-09T04:42:12.366Z,13.81
2018-05-09T04:43:11.977Z,13.89
2018-05-09T04:44:11.976Z,13.88
2018-05-09T04:45:11.957Z,13.94
2018-05-09T04:46:12.196Z,13.92
2018-05-09T04:47:11.931Z,13.95
2018-05-09T04:48:11.911Z,13.89
2018-05-09T04:49:11.965Z,13.89
2018-05-09T04:50:12.146Z,13.89
2018-05-09T04:51:12.138Z,13.88
2018-05-09T04:52:12.122Z,13.91
2018-05-09T04:53:11.843Z,13.92
2018-05-09T04:54:11.837Z,13.84
2018-05-09T04:55:12.089Z,13.98
2018-05-09T04:56:12.066Z,13.96
2018-05-09T04:57:11.521Z,13.98
2018-05-09T04:58:11.779Z,13.99
2018-05-09T04:59:11.766Z,13.96
2018-05-09T05:00:11.749Z,14.01
2018-05-09T05:01:11.740Z,14.02
2018-05-09T05:02:11.723Z,14.01
2018-05-09T05:03:11.710Z,14.1
2018-05-09T05:04:11.966Z,14.04
2018-05-09T05:05:11.949Z,14.09
2018-05-09T05:06:11.935Z,14.04
2018-05-09T05:07:11.658Z,14.14
2018-05-09T05:08:11.384Z,14.2
2018-05-09T05:09:11.904Z,14.27
2018-05-09T05:10:11.618Z,14.34
2018-05-09T05:11:11.338Z,14.28
2018-05-09T05:12:11.860Z,14.27
2018-05-09T05:13:11.583Z,14.31
2018-05-09T05:14:11.563Z,14.29
2018-05-09T05:15:11.818Z,14.39
2018-05-09T05:16:11.273Z,14.34
2018-05-09T05:17:11.791Z,14.43
2018-05-09T05:18:11.522Z,14.46
2018-05-09T05:19:11.493Z,14.47
2018-05-09T05:20:11.821Z,14.47
2018-05-09T05:21:11.208Z,14.53
2018-05-09T05:22:11.193Z,14.52
2018-05-09T05:23:11.443Z,14.57
2018-05-09T05:24:11.455Z,14.54
2018-05-09T05:25:11.433Z,14.65
2018-05-09T05:26:11.673Z,14.71
2018-05-09T05:27:11.190Z,14.83
2018-05-09T05:28:11.114Z,14.78
2018-05-09T05:29:11.390Z,14.81
2018-05-09T05:30:11.366Z,14.84
2018-05-09T05:31:11.344Z,14.83
2018-05-09T05:32:11.332Z,14.91
2018-05-09T05:33:11.329Z,14.94
2018-05-09T05:34:11.306Z,15.02
2018-05-09T05:35:11.305Z,15.08
2018-05-09T05:36:11.281Z,15.12
2018-05-09T05:37:11.006Z,15.13
2018-05-09T05:38:11.519Z,15.09
2018-05-09T05:39:11.241Z,15.19
2018-05-09T05:40:10.963Z,15.23
2018-05-09T05:41:11.218Z,15.31
2018-05-09T05:42:11.477Z,15.17
2018-05-09T05:43:11.198Z,15.38
2018-05-09T05:44:11.452Z,15.42
2018-05-09T05:45:11.484Z,15.39
2018-05-09T05:46:11.422Z,15.45
2018-05-09T05:47:11.141Z,15.43
2018-05-09T05:48:11.392Z,15.48
2018-05-09T05:49:10.856Z,15.52
2018-05-09T05:50:11.375Z,15.63
2018-05-09T05:51:11.094Z,15.49
2018-05-09T05:52:11.082Z,15.64
2018-05-09T05:53:11.068Z,15.59
2018-05-09T05:54:11.060Z,15.6
2018-05-09T05:55:10.774Z,15.67
2018-05-09T05:56:11.193Z,15.76
2018-05-09T05:57:11.018Z,15.78
2018-05-09T05:58:11.010Z,15.84
2018-05-09T05:59:10.995Z,15.76
2018-05-09T06:00:10.988Z,15.85
2018-05-09T06:01:11.248Z,15.84
2018-05-09T06:02:10.962Z,15.89
2018-05-09T06:03:11.291Z,15.94
2018-05-09T06:04:11.805Z,15.89
2018-05-09T06:05:10.923Z,16.03
2018-05-09T06:06:10.909Z,16.03
2018-05-09T06:07:11.160Z,16.11
2018-05-09T06:08:11.151Z,16.11
2018-05-09T06:09:10.878Z,16.14
2018-05-09T06:10:11.265Z,16.16
2018-05-09T06:11:10.859Z,16.14
2018-05-09T06:12:10.838Z,16.26
2018-05-09T06:13:11.090Z,16.38
2018-05-09T06:14:10.810Z,16.33
2018-05-09T06:15:10.814Z,16.35
2018-05-09T06:16:10.800Z,16.37
2018-05-09T06:17:11.272Z,16.48
2018-05-09T06:18:10.501Z,16.44
2018-05-09T06:19:10.499Z,16.49
2018-05-09T06:20:11.015Z,16.55
2018-05-09T06:21:10.734Z,16.6
2018-05-09T06:22:10.820Z,16.73
2018-05-09T06:23:10.982Z,16.71
2018-05-09T06:24:10.501Z,16.7
2018-05-09T06:25:10.421Z,16.83
2018-05-09T06:26:10.684Z,16.71
2018-05-09T06:27:10.660Z,16.8
2018-05-09T06:28:10.655Z,16.89
2018-05-09T06:29:10.655Z,16.8
2018-05-09T06:30:10.900Z,16.86
2018-05-09T06:31:10.352Z,16.92
2018-05-09T06:32:10.604Z,16.93
2018-05-09T06:33:10.601Z,17.03
2018-05-09T06:34:10.594Z,17.13
2018-05-09T06:35:10.854Z,17.08
2018-05-09T06:36:10.830Z,17.15
2018-05-09T06:37:10.286Z,17.25
2018-05-09T06:38:10.281Z,17.32
2018-05-09T06:39:10.796Z,17.32
2018-05-09T06:40:10.783Z,17.36
2018-05-09T06:41:10.511Z,17.44
2018-05-09T06:42:10.494Z,17.53
2018-05-09T06:43:10.484Z,17.48
2018-05-09T06:44:10.476Z,17.53
2018-05-09T06:45:10.467Z,17.59
2018-05-09T06:46:10.719Z,17.73
2018-05-09T06:47:10.443Z,17.71
2018-05-09T06:48:10.434Z,17.79
2018-05-09T06:49:10.157Z,17.87
2018-05-09T06:50:10.581Z,17.97
2018-05-09T06:51:10.666Z,17.87
2018-05-09T06:52:10.656Z,17.97
2018-05-09T06:53:10.640Z,18.13
2018-05-09T06:54:10.367Z,18.1
2018-05-09T06:55:10.617Z,18.22
2018-05-09T06:56:10.081Z,18.27
2018-05-09T06:57:10.068Z,18.29
2018-05-09T06:58:10.327Z,18.33
2018-05-09T06:59:10.533Z,18.44
2018-05-09T07:00:10.309Z,18.49
2018-05-09T07:01:10.567Z,18.46
2018-05-09T07:02:10.016Z,18.57
2018-05-09T07:03:10.271Z,18.55
2018-05-09T07:04:10.260Z,18.57
2018-05-09T07:05:10.529Z,18.77
2018-05-09T07:06:10.707Z,18.74
2018-05-09T07:07:10.230Z,18.8
2018-05-09T07:08:10.490Z,18.84
2018-05-09T07:09:10.216Z,18.9
2018-05-09T07:10:10.465Z,18.94
2018-05-09T07:11:10.205Z,18.97
2018-05-09T07:12:10.444Z,19.06
2018-05-09T07:13:10.435Z,19.02
2018-05-09T07:14:09.894Z,19.13
2018-05-09T07:15:10.153Z,19.14
2018-05-09T07:16:10.155Z,19.21
2018-05-09T07:17:10.139Z,19.31
2018-05-09T07:18:10.387Z,19.33
2018-05-09T07:19:09.847Z,19.38
2018-05-09T07:20:10.100Z,19.57
2018-05-09T07:21:09.829Z,19.58
2018-05-09T07:22:10.577Z,19.58
2018-05-09T07:23:10.469Z,19.66
2018-05-09T07:24:10.330Z,19.76
2018-05-09T07:25:10.051Z,19.73
2018-05-09T07:26:10.307Z,19.8
2018-05-09T07:27:10.294Z,19.86
2018-05-09T07:28:10.292Z,19.95
2018-05-09T07:29:10.014Z,19.98
2018-05-09T07:30:09.748Z,20.1
2018-05-09T07:31:09.737Z,20.13
2018-05-09T07:32:10.258Z,20.24
2018-05-09T07:33:09.729Z,20.27
2018-05-09T07:34:09.974Z,20.24
2018-05-09T07:35:09.977Z,20.38
2018-05-09T07:36:09.694Z,20.39
2018-05-09T07:37:09.740Z,20.47
2018-05-09T07:38:09.954Z,20.62
2018-05-09T07:39:10.231Z,20.69
2018-05-09T07:40:10.206Z,20.8
2018-05-09T07:41:09.963Z,20.83
2018-05-09T07:42:09.700Z,20.93
2018-05-09T07:43:09.676Z,21.04
2018-05-09T07:44:09.659Z,21.11
2018-05-09T07:45:10.185Z,21.27
2018-05-09T07:46:10.182Z,21.26
2018-05-09T07:47:10.183Z,21.5
2018-05-09T07:48:09.913Z,21.57
2018-05-09T07:49:09.904Z,21.53
2018-05-09T07:50:09.896Z,21.63
2018-05-09T07:51:09.897Z,21.79
2018-05-09T07:52:10.152Z,21.85
2018-05-09T07:53:09.635Z,21.94
2018-05-09T07:54:09.881Z,22.02
2018-05-09T07:55:09.897Z,22.09
2018-05-09T07:56:09.865Z,22.1
2018-05-09T07:57:09.606Z,22.27
2018-05-09T07:58:09.590Z,22.34
2018-05-09T07:59:09.871Z,22.47
2018-05-09T08:00:09.850Z,22.62
2018-05-09T08:01:10.136Z,22.64
2018-05-09T08:02:09.841Z,22.67
2018-05-09T08:03:10.133Z,22.77
2018-05-09T08:04:10.098Z,22.86
2018-05-09T08:05:09.573Z,22.84
2018-05-09T08:06:09.866Z,22.87
2018-05-09T08:07:09.840Z,22.94
2018-05-09T08:08:09.557Z,22.93
2018-05-09T08:09:10.088Z,23.02
2018-05-09T08:10:09.545Z,23.15
2018-05-09T08:11:09.543Z,23.77
2018-05-09T08:12:10.119Z,24.79
2018-05-09T08:13:10.060Z,25.99
2018-05-09T08:14:10.072Z,26.81
2018-05-09T08:15:09.796Z,27.64
2018-05-09T08:16:09.812Z,28.35
2018-05-09T08:17:09.789Z,28.93
2018-05-09T08:18:09.788Z,29.49
2018-05-09T08:19:09.783Z,29.96
2018-05-09T08:20:10.060Z,30.59
2018-05-09T08:21:09.786Z,31.13
2018-05-09T08:22:09.784Z,31.45
2018-05-09T08:23:09.788Z,31.77
2018-05-09T08:24:09.787Z,31.99
2018-05-09T08:25:09.782Z,32.24
2018-05-09T08:26:09.777Z,32.24
2018-05-09T08:27:10.060Z,32.55
2018-05-09T08:28:10.047Z,32.8
2018-05-09T08:29:09.522Z,33.11
2018-05-09T08:30:09.785Z,33.07
2018-05-09T08:31:10.058Z,33.06
2018-05-09T08:32:10.055Z,32.84
2018-05-09T08:33:09.783Z,32.52
2018-05-09T08:34:10.054Z,32.05
2018-05-09T08:35:09.797Z,31.35
2018-05-09T08:36:10.083Z,30.99
2018-05-09T08:37:09.524Z,30.72
2018-05-09T08:38:10.053Z,30.57
2018-05-09T08:39:10.063Z,30.19
2018-05-09T08:40:10.051Z,29.97
2018-05-09T08:41:09.785Z,29.6
2018-05-09T08:42:10.060Z,29.19
2018-05-09T08:43:09.881Z,28.82
2018-05-09T08:44:10.114Z,28.32
2018-05-09T08:45:09.782Z,27.96
2018-05-09T08:46:10.053Z,27.96
2018-05-09T08:47:10.053Z,27.88
2018-05-09T08:48:09.778Z,28.09
2018-05-09T08:49:10.094Z,28.36
2018-05-09T08:50:09.774Z,28.43
2018-05-09T08:51:10.048Z,28.28
2018-05-09T08:52:09.770Z,27.84
2018-05-09T08:53:09.770Z,27.58
2018-05-09T08:54:10.045Z,27.38
2018-05-09T08:55:09.774Z,27.28
2018-05-09T08:56:09.499Z,27.13
2018-05-09T08:57:09.495Z,26.8
2018-05-09T08:58:09.762Z,26.58
2018-05-09T08:59:09.754Z,26.5
2018-05-09T09:00:10.014Z,26.39
2018-05-09T09:01:09.484Z,26.29
2018-05-09T09:02:09.479Z,26.09
2018-05-09T09:03:09.746Z,25.99
2018-05-09T09:04:09.492Z,25.98
2018-05-09T09:05:09.745Z,25.89
2018-05-09T09:06:09.999Z,25.79
2018-05-09T09:07:09.461Z,25.83
2018-05-09T09:08:09.458Z,25.8
2018-05-09T09:09:09.986Z,25.71
2018-05-09T09:10:09.984Z,25.65
2018-05-09T09:11:10.198Z,25.61
2018-05-09T09:12:09.705Z,25.53
2018-05-09T09:13:09.704Z,25.46
2018-05-09T09:14:09.702Z,25.53
2018-05-09T09:15:09.968Z,25.57
2018-05-09T09:16:09.695Z,25.47
2018-05-09T09:17:09.955Z,25.54
2018-05-09T09:18:09.419Z,25.42
2018-05-09T09:19:09.677Z,25.47
2018-05-09T09:20:09.807Z,25.46
2018-05-09T09:21:09.678Z,25.43
2018-05-09T09:22:09.439Z,25.43
2018-05-09T09:23:09.997Z,25.42
2018-05-09T09:24:09.976Z,25.42
2018-05-09T09:25:09.472Z,25.42
2018-05-09T09:26:09.475Z,25.42
2018-05-09T09:27:09.977Z,25.3
2018-05-09T09:28:09.672Z,25.3
2018-05-09T09:29:10.126Z,25.47
2018-05-09T09:30:09.686Z,25.49
2018-05-09T09:31:10.061Z,25.44
2018-05-09T09:32:09.703Z,25.44
2018-05-09T09:33:09.877Z,25.49
2018-05-09T09:34:09.352Z,25.52
2018-05-09T09:35:09.874Z,25.39
2018-05-09T09:36:09.596Z,25.35
2018-05-09T09:37:09.592Z,25.34
2018-05-09T09:38:09.325Z,25.37
2018-05-09T09:39:09.871Z,25.35
2018-05-09T09:40:09.581Z,25.42
2018-05-09T09:41:09.855Z,25.43
2018-05-09T09:42:09.834Z,25.39
2018-05-09T09:43:09.589Z,25.43
2018-05-09T09:44:09.828Z,25.43
2018-05-09T09:45:09.285Z,25.46
2018-05-09T09:46:09.824Z,25.5
2018-05-09T09:47:09.812Z,25.52
2018-05-09T09:48:09.802Z,25.52
2018-05-09T09:49:09.797Z,25.57
2018-05-09T09:50:09.524Z,25.56
2018-05-09T09:51:09.519Z,25.49
2018-05-09T09:52:09.513Z,25.47
2018-05-09T09:53:09.771Z,25.47
2018-05-09T09:54:09.777Z,25.47
2018-05-09T09:55:09.497Z,25.43
2018-05-09T09:56:09.236Z,25.39
2018-05-09T09:57:09.492Z,25.32
2018-05-09T09:58:09.752Z,25.35
2018-05-09T09:59:09.741Z,25.44
2018-05-09T10:00:09.472Z,25.43
2018-05-09T10:01:09.741Z,25.53
2018-05-09T10:02:09.728Z,25.54
2018-05-09T10:03:09.461Z,25.37
2018-05-09T10:04:09.450Z,25.43
2018-05-09T10:05:09.649Z,25.5
2018-05-09T10:06:09.438Z,25.53
2018-05-09T10:07:09.176Z,25.44
2018-05-09T10:08:10.093Z,25.5
2018-05-09T10:09:09.695Z,25.56
2018-05-09T10:10:09.423Z,25.52
2018-05-09T10:11:09.420Z,25.69
2018-05-09T10:12:09.674Z,25.82
2018-05-09T10:13:09.403Z,25.77
2018-05-09T10:14:09.399Z,25.79
2018-05-09T10:15:09.673Z,25.82
2018-05-09T10:16:09.915Z,25.74
2018-05-09T10:17:09.385Z,25.9
2018-05-09T10:18:09.656Z,25.91
2018-05-09T10:19:09.647Z,26.08
2018-05-09T10:20:09.372Z,26.09
2018-05-09T10:21:09.639Z,26.2
2018-05-09T10:22:09.373Z,26.29
2018-05-09T10:23:09.483Z,26.44
2018-05-09T10:24:09.621Z,26.73
2018-05-09T10:25:09.088Z,26.94
2018-05-09T10:26:09.347Z,27.64
2018-05-09T10:27:09.346Z,27.99
2018-05-09T10:28:09.627Z,28.43
2018-05-09T10:29:09.077Z,28.85
2018-05-09T10:30:09.612Z,29.23
2018-05-09T10:31:09.608Z,29.71
2018-05-09T10:32:09.342Z,29.99
2018-05-09T10:33:09.351Z,30.56
2018-05-09T10:34:09.351Z,31.01
2018-05-09T10:35:09.608Z,31.31
2018-05-09T10:36:09.352Z,31.68
2018-05-09T10:37:09.357Z,31.95
2018-05-09T10:38:09.353Z,32.33
2018-05-09T10:39:09.092Z,32.79
2018-05-09T10:40:09.631Z,33.07
2018-05-09T10:41:09.627Z,32.95
2018-05-09T10:42:09.364Z,32.95
2018-05-09T10:43:09.636Z,32.79
2018-05-09T10:44:09.635Z,32.86
2018-05-09T10:45:09.646Z,32.33
2018-05-09T10:46:09.391Z,32.18
2018-05-09T10:47:09.124Z,32.24
2018-05-09T10:48:09.665Z,32.71
2018-05-09T10:49:09.400Z,32.81
2018-05-09T10:50:09.409Z,33.06
2018-05-09T10:51:09.409Z,33.15
2018-05-09T10:52:09.416Z,33.34
2018-05-09T10:53:09.428Z,33.55
2018-05-09T10:54:09.162Z,33.94
2018-05-09T10:55:09.704Z,34.24
2018-05-09T10:56:09.177Z,34.16
2018-05-09T10:57:09.794Z,34.24
2018-05-09T10:58:09.719Z,34.39
2018-05-09T10:59:09.459Z,34.42
2018-05-09T11:00:09.472Z,34.48
2018-05-09T11:01:09.204Z,34.63
2018-05-09T11:02:09.485Z,34.72
2018-05-09T11:03:09.487Z,34.84
2018-05-09T11:04:09.761Z,34.86
2018-05-09T11:05:09.768Z,35.03
2018-05-09T11:06:09.777Z,34.84
2018-05-09T11:07:09.518Z,34.95
2018-05-09T11:08:09.520Z,35.08
2018-05-09T11:09:09.794Z,35.08
2018-05-09T11:10:09.810Z,35.28
2018-05-09T11:11:09.554Z,35.44
2018-05-09T11:12:09.830Z,35.44
2018-05-09T11:13:09.573Z,35.36
2018-05-09T11:14:09.829Z,34.92
2018-05-09T11:15:09.573Z,34.98
2018-05-09T11:16:09.315Z,35.2
2018-05-09T11:17:09.869Z,35.37
2018-05-09T11:18:09.601Z,35.51
2018-05-09T11:19:09.606Z,35.79
2018-05-09T11:20:09.346Z,36
2018-05-09T11:21:09.635Z,35.93
2018-05-09T11:22:09.625Z,36.11
2018-05-09T11:23:09.637Z,35.7
2018-05-09T11:24:09.911Z,35.28
2018-05-09T11:25:09.924Z,35.18
2018-05-09T11:26:09.924Z,35.33
2018-05-09T11:27:09.398Z,35.21
2018-05-09T11:28:09.687Z,35.29
2018-05-09T11:29:09.955Z,35.44
2018-05-09T11:30:09.964Z,35.66
2018-05-09T11:31:09.442Z,35.7
2018-05-09T11:32:09.715Z,35.52
2018-05-09T11:33:09.723Z,35.58
2018-05-09T11:34:09.461Z,35.79
2018-05-09T11:35:09.735Z,35.69
2018-05-09T11:36:10.020Z,35.85
2018-05-09T11:37:10.020Z,36.17
2018-05-09T11:38:10.027Z,36.31
2018-05-09T11:39:09.504Z,35.89
2018-05-09T11:40:09.520Z,35.7
2018-05-09T11:41:10.054Z,35.54
2018-05-09T11:42:09.796Z,35.51
2018-05-09T11:43:09.810Z,35.32
2018-05-09T11:44:09.806Z,34.84
2018-05-09T11:45:10.082Z,34.46
2018-05-09T11:46:09.827Z,33.74
2018-05-09T11:47:09.864Z,34.07
2018-05-09T11:48:10.109Z,34.2
2018-05-09T11:49:10.135Z,33.8
2018-05-09T11:50:09.858Z,33.94
2018-05-09T11:51:10.162Z,34.01
2018-05-09T11:52:10.146Z,33.95
2018-05-09T11:53:10.389Z,33.82
2018-05-09T11:54:10.160Z,33.73
2018-05-09T11:55:10.193Z,33.87
2018-05-09T11:56:10.181Z,34.14
2018-05-09T11:57:10.190Z,34.46
2018-05-09T11:58:09.924Z,34.45
2018-05-09T11:59:10.262Z,34.79
2018-05-09T12:00:09.942Z,35.06
2018-05-09T12:01:10.213Z,35.17
2018-05-09T12:02:09.996Z,35.5
2018-05-09T12:03:09.970Z,35.69
2018-05-09T12:04:10.236Z,36.06
2018-05-09T12:05:10.451Z,36.27
2018-05-09T12:06:09.986Z,36.31
2018-05-09T12:07:10.009Z,36.58
2018-05-09T12:08:10.006Z,36.65
2018-05-09T12:09:10.288Z,36.7
2018-05-09T12:10:10.020Z,36.87
2018-05-09T12:11:10.038Z,37.04
2018-05-09T12:12:10.047Z,37.14
2018-05-09T12:13:10.315Z,36.95
2018-05-09T12:14:10.052Z,36.97
2018-05-09T12:15:10.348Z,36.91
2018-05-09T12:16:09.803Z,36.68
2018-05-09T12:17:10.077Z,36.91
2018-05-09T12:18:10.358Z,36.85
2018-05-09T12:19:10.372Z,36.45
2018-05-09T12:20:10.109Z,36
2018-05-09T12:21:10.109Z,35.63
2018-05-09T12:22:10.136Z,35.5
2018-05-09T12:23:10.140Z,35.67
2018-05-09T12:24:10.134Z,35.4
2018-05-09T12:25:10.142Z,35.77
2018-05-09T12:26:10.155Z,35.69
2018-05-09T12:27:09.898Z,35.97
2018-05-09T12:28:10.428Z,36.24
2018-05-09T12:29:10.182Z,36.7
2018-05-09T12:30:09.924Z,36.76
2018-05-09T12:31:10.192Z,36.24
2018-05-09T12:32:09.936Z,36.07
2018-05-09T12:33:10.477Z,36.29
2018-05-09T12:34:10.491Z,36.33
2018-05-09T12:35:10.231Z,36.19
2018-05-09T12:36:10.243Z,36.19
2018-05-09T12:37:09.982Z,36.15
2018-05-09T12:38:10.525Z,36.31
2018-05-09T12:39:10.264Z,36.12
2018-05-09T12:40:10.544Z,36.12
2018-05-09T12:41:10.551Z,36.29
2018-05-09T12:42:10.555Z,36.35
2018-05-09T12:43:10.561Z,36.29
2018-05-09T12:44:10.042Z,36.31
2018-05-09T12:45:10.584Z,36.58
2018-05-09T12:46:10.054Z,36.17
2018-05-09T12:47:10.338Z,35.73
2018-05-09T12:48:10.606Z,35.69
2018-05-09T12:49:10.350Z,35.89
2018-05-09T12:50:10.621Z,35.76
2018-05-09T12:51:10.368Z,36.01
2018-05-09T12:52:10.377Z,35.7
2018-05-09T12:53:10.653Z,35.08
2018-05-09T12:54:10.662Z,34.81
2018-05-09T12:55:10.664Z,34.96